sensor_id;sensor_type;location;lat;lon;timestamp;pressure;altitude;pressure_sealevel;temperature;humidity
9249;BME280;4660;41.768;26.198;2023-01-29T00:00:39;101141.25;;;5.04;100.00
9249;BME280;4660;41.768;26.198;2023-01-29T00:03:04;101139.16;;;5.09;100.00
9249;BME280;4660;41.768;26.198;2023-01-29T00:05:30;101144.97;;;5.15;100.00
9249;BME280;4660;41.768;26.198;2023-01-29T00:07:55;101135.25;;;5.00;100.00
9249;BME280;4660;41.768;26.198;2023-01-29T00:10:23;101126.38;;;5.00;100.00
9249;BME280;4660;41.768;26.198;2023-01-29T00:12:49;101144.97;;;4.87;100.00
9249;BME280;4660;41.768;26.198;2023-01-29T00:15:16;101146.69;;;5.02;100.00
9249;BME280;4660;41.768;26.198;2023-01-29T00:17:42;101135.63;;;4.94;100.00
9249;BME280;4660;41.768;26.198;2023-01-29T00:20:09;101151.72;;;5.07;100.00
9249;BME280;4660;41.768;26.198;2023-01-29T00:22:35;101154.31;;;5.08;100.00
9249;BME280;4660;41.768;26.198;2023-01-29T00:25:01;101154.31;;;5.08;100.00
9249;BME280;4660;41.768;26.198;2023-01-29T00:27:26;101156.72;;;4.68;100.00
9249;BME280;4660;41.768;26.198;2023-01-29T00:29:52;101157.47;;;4.56;100.00
9249;BME280;4660;41.768;26.198;2023-01-29T00:32:49;101145.75;;;4.45;100.00
9249;BME280;4660;41.768;26.198;2023-01-29T00:35:15;101156.00;;;4.81;100.00
9249;BME280;4660;41.768;26.198;2023-01-29T00:37:40;101165.03;;;4.78;100.00
9249;BME280;4660;41.768;26.198;2023-01-29T00:40:07;101135.59;;;4.51;100.00
9249;BME280;4660;41.768;26.198;2023-01-29T00:42:33;101150.25;;;4.58;100.00
9249;BME280;4660;41.768;26.198;2023-01-29T00:45:17;101151.41;;;4.83;100.00
9249;BME280;4660;41.768;26.198;2023-01-29T00:47:42;101146.84;;;4.85;100.00
9249;BME280;4660;41.768;26.198;2023-01-29T00:50:10;101147.13;;;4.66;100.00
9249;BME280;4660;41.768;26.198;2023-01-29T00:52:36;101142.41;;;4.41;100.00
9249;BME280;4660;41.768;26.198;2023-01-29T00:55:03;101139.19;;;4.36;100.00
9249;BME280;4660;41.768;26.198;2023-01-29T00:57:31;101146.22;;;4.37;100.00
9249;BME280;4660;41.768;26.198;2023-01-29T00:59:57;101147.97;;;4.22;100.00
9249;BME280;4660;41.768;26.198;2023-01-29T01:02:22;101133.56;;;4.10;100.00
9249;BME280;4660;41.768;26.198;2023-01-29T01:05:08;101140.59;;;4.11;100.00
9249;BME280;4660;41.768;26.198;2023-01-29T01:07:39;101141.75;;;4.07;100.00
9249;BME280;4660;41.768;26.198;2023-01-29T01:10:05;101153.91;;;4.11;100.00
9249;BME280;4660;41.768;26.198;2023-01-29T01:13:03;101160.09;;;4.12;100.00
9249;BME280;4660;41.768;26.198;2023-01-29T01:15:33;101164.13;;;4.19;100.00
9249;BME280;4660;41.768;26.198;2023-01-29T01:18:00;101169.88;;;4.11;100.00
9249;BME280;4660;41.768;26.198;2023-01-29T01:20:28;101159.94;;;3.99;100.00
9249;BME280;4660;41.768;26.198;2023-01-29T01:22:54;101162.59;;;3.99;100.00
9249;BME280;4660;41.768;26.198;2023-01-29T01:25:23;101154.63;;;3.99;100.00
9249;BME280;4660;41.768;26.198;2023-01-29T01:27:57;101160.13;;;3.96;100.00
9249;BME280;4660;41.768;26.198;2023-01-29T01:30:23;101167.88;;;4.01;100.00
9249;BME280;4660;41.768;26.198;2023-01-29T01:32:49;101154.19;;;3.91;100.00
9249;BME280;4660;41.768;26.198;2023-01-29T01:35:15;101159.28;;;3.96;100.00
9249;BME280;4660;41.768;26.198;2023-01-29T01:37:41;101165.09;;;4.02;100.00
9249;BME280;4660;41.768;26.198;2023-01-29T01:40:12;101149.22;;;4.01;100.00
9249;BME280;4660;41.768;26.198;2023-01-29T01:42:43;101160.44;;;4.06;100.00
9249;BME280;4660;41.768;26.198;2023-01-29T01:47:49;101160.25;;;4.25;100.00
9249;BME280;4660;41.768;26.198;2023-01-29T01:53:08;101135.38;;;4.40;100.00
9249;BME280;4660;41.768;26.198;2023-01-29T01:55:43;101164.53;;;4.57;100.00
9249;BME280;4660;41.768;26.198;2023-01-29T01:58:12;101157.38;;;4.44;100.00
9249;BME280;4660;41.768;26.198;2023-01-29T02:00:40;101173.50;;;4.40;100.00
9249;BME280;4660;41.768;26.198;2023-01-29T02:03:07;101170.00;;;4.40;100.00
9249;BME280;4660;41.768;26.198;2023-01-29T02:05:54;101170.63;;;4.29;100.00
9249;BME280;4660;41.768;26.198;2023-01-29T02:08:54;101166.66;;;4.36;100.00
9249;BME280;4660;41.768;26.198;2023-01-29T02:11:39;101173.91;;;4.19;100.00
9249;BME280;4660;41.768;26.198;2023-01-29T02:14:05;101166.28;;;4.12;100.00
9249;BME280;4660;41.768;26.198;2023-01-29T02:16:34;101173.06;;;4.18;100.00
9249;BME280;4660;41.768;26.198;2023-01-29T02:19:00;101159.66;;;4.20;100.00
9249;BME280;4660;41.768;26.198;2023-01-29T02:21:40;101172.81;;;4.07;100.00
9249;BME280;4660;41.768;26.198;2023-01-29T02:27:11;101170.31;;;4.20;100.00
9249;BME280;4660;41.768;26.198;2023-01-29T02:35:10;101178.50;;;4.01;100.00
9249;BME280;4660;41.768;26.198;2023-01-29T02:40:43;101186.38;;;4.18;100.00
9249;BME280;4660;41.768;26.198;2023-01-29T02:46:13;101173.38;;;4.28;100.00
9249;BME280;4660;41.768;26.198;2023-01-29T02:52:30;101183.94;;;4.59;100.00
9249;BME280;4660;41.768;26.198;2023-01-29T02:55:17;101188.34;;;4.75;100.00
9249;BME280;4660;41.768;26.198;2023-01-29T02:57:45;101182.03;;;4.61;100.00
9249;BME280;4660;41.768;26.198;2023-01-29T03:00:19;101187.06;;;4.52;100.00
9249;BME280;4660;41.768;26.198;2023-01-29T03:02:58;101184.31;;;4.53;100.00
9249;BME280;4660;41.768;26.198;2023-01-29T03:06:09;101185.00;;;4.71;100.00
9249;BME280;4660;41.768;26.198;2023-01-29T03:08:39;101180.00;;;4.81;100.00
9249;BME280;4660;41.768;26.198;2023-01-29T03:11:11;101188.38;;;4.89;100.00
9249;BME280;4660;41.768;26.198;2023-01-29T03:13:50;101190.63;;;4.66;100.00
9249;BME280;4660;41.768;26.198;2023-01-29T03:18:50;101191.44;;;4.23;100.00
9249;BME280;4660;41.768;26.198;2023-01-29T03:21:21;101198.28;;;4.27;100.00
9249;BME280;4660;41.768;26.198;2023-01-29T03:24:10;101178.72;;;4.12;100.00
9249;BME280;4660;41.768;26.198;2023-01-29T03:26:57;101200.19;;;4.25;100.00
9249;BME280;4660;41.768;26.198;2023-01-29T03:29:46;101212.56;;;4.26;100.00
9249;BME280;4660;41.768;26.198;2023-01-29T03:32:31;101207.84;;;3.99;100.00
9249;BME280;4660;41.768;26.198;2023-01-29T03:35:00;101198.13;;;4.30;100.00
9249;BME280;4660;41.768;26.198;2023-01-29T03:37:32;101211.84;;;4.38;100.00
9249;BME280;4660;41.768;26.198;2023-01-29T03:40:05;101216.16;;;4.25;100.00
9249;BME280;4660;41.768;26.198;2023-01-29T03:42:55;101210.53;;;4.45;100.00
9249;BME280;4660;41.768;26.198;2023-01-29T03:45:54;101215.06;;;4.59;100.00
9249;BME280;4660;41.768;26.198;2023-01-29T03:50:59;101218.53;;;4.45;100.00
9249;BME280;4660;41.768;26.198;2023-01-29T03:56:20;101219.50;;;4.44;100.00
9249;BME280;4660;41.768;26.198;2023-01-29T03:58:58;101230.31;;;4.41;100.00
9249;BME280;4660;41.768;26.198;2023-01-29T04:01:34;101224.06;;;4.26;100.00
9249;BME280;4660;41.768;26.198;2023-01-29T04:04:23;101236.38;;;4.29;100.00
9249;BME280;4660;41.768;26.198;2023-01-29T04:06:51;101242.41;;;4.47;100.00
9249;BME280;4660;41.768;26.198;2023-01-29T04:09:30;101194.94;;;3.93;100.00
9249;BME280;4660;41.768;26.198;2023-01-29T04:12:02;101250.28;;;4.18;100.00
9249;BME280;4660;41.768;26.198;2023-01-29T04:14:30;101250.19;;;4.20;100.00
9249;BME280;4660;41.768;26.198;2023-01-29T04:16:59;101248.06;;;4.10;100.00
9249;BME280;4660;41.768;26.198;2023-01-29T04:19:27;101249.00;;;4.09;100.00
9249;BME280;4660;41.768;26.198;2023-01-29T04:22:02;101256.72;;;4.30;100.00
9249;BME280;4660;41.768;26.198;2023-01-29T04:24:30;101265.19;;;4.52;100.00
9249;BME280;4660;41.768;26.198;2023-01-29T04:29:56;101267.44;;;4.44;100.00
9249;BME280;4660;41.768;26.198;2023-01-29T04:38:42;101268.50;;;4.10;100.00
9249;BME280;4660;41.768;26.198;2023-01-29T04:41:19;101274.25;;;4.02;100.00
9249;BME280;4660;41.768;26.198;2023-01-29T04:49:28;101270.97;;;3.97;100.00
9249;BME280;4660;41.768;26.198;2023-01-29T04:54:41;101282.66;;;3.79;100.00
9249;BME280;4660;41.768;26.198;2023-01-29T05:00:10;101294.06;;;3.81;100.00
9249;BME280;4660;41.768;26.198;2023-01-29T05:02:40;101296.94;;;3.94;100.00
9249;BME280;4660;41.768;26.198;2023-01-29T05:05:07;101297.06;;;3.75;100.00
9249;BME280;4660;41.768;26.198;2023-01-29T05:07:35;101304.41;;;4.03;100.00
9249;BME280;4660;41.768;26.198;2023-01-29T05:10:05;101304.41;;;4.03;100.00
9249;BME280;4660;41.768;26.198;2023-01-29T05:12:32;101301.53;;;3.74;100.00
9249;BME280;4660;41.768;26.198;2023-01-29T05:15:01;101309.94;;;3.67;100.00
9249;BME280;4660;41.768;26.198;2023-01-29T05:17:27;101307.72;;;3.75;100.00
9249;BME280;4660;41.768;26.198;2023-01-29T05:19:54;101307.38;;;3.81;100.00
9249;BME280;4660;41.768;26.198;2023-01-29T05:22:21;101324.31;;;4.11;100.00
9249;BME280;4660;41.768;26.198;2023-01-29T05:24:48;101327.00;;;4.11;100.00
9249;BME280;4660;41.768;26.198;2023-01-29T05:27:20;101305.28;;;3.70;100.00
9249;BME280;4660;41.768;26.198;2023-01-29T05:30:05;101336.91;;;3.92;100.00
9249;BME280;4660;41.768;26.198;2023-01-29T05:32:31;101336.69;;;3.64;100.00
9249;BME280;4660;41.768;26.198;2023-01-29T05:34:56;101343.56;;;3.68;100.00
9249;BME280;4660;41.768;26.198;2023-01-29T05:37:22;101336.69;;;3.64;100.00
9249;BME280;4660;41.768;26.198;2023-01-29T05:39:47;101346.97;;;3.54;100.00
9249;BME280;4660;41.768;26.198;2023-01-29T05:42:13;101352.59;;;3.48;100.00
9249;BME280;4660;41.768;26.198;2023-01-29T05:44:38;101353.44;;;3.66;100.00
9249;BME280;4660;41.768;26.198;2023-01-29T05:47:04;101355.31;;;3.64;100.00
9249;BME280;4660;41.768;26.198;2023-01-29T05:49:29;101355.25;;;3.65;100.00
9249;BME280;4660;41.768;26.198;2023-01-29T05:51:55;101358.72;;;3.83;100.00
9249;BME280;4660;41.768;26.198;2023-01-29T05:54:20;101362.81;;;3.73;100.00
9249;BME280;4660;41.768;26.198;2023-01-29T05:56:46;101346.78;;;3.57;100.00
9249;BME280;4660;41.768;26.198;2023-01-29T05:59:14;101360.09;;;3.57;100.00
9249;BME280;4660;41.768;26.198;2023-01-29T06:01:40;101352.81;;;3.61;100.00
9249;BME280;4660;41.768;26.198;2023-01-29T06:04:05;101367.34;;;3.71;100.00
9249;BME280;4660;41.768;26.198;2023-01-29T06:06:31;101366.91;;;3.63;100.00
9249;BME280;4660;41.768;26.198;2023-01-29T06:08:56;101374.44;;;3.54;100.00
9249;BME280;4660;41.768;26.198;2023-01-29T06:11:23;101369.19;;;3.53;100.00
9249;BME280;4660;41.768;26.198;2023-01-29T06:13:48;101381.69;;;3.68;100.00
9249;BME280;4660;41.768;26.198;2023-01-29T06:16:14;101392.72;;;3.61;100.00
9249;BME280;4660;41.768;26.198;2023-01-29T06:18:40;101395.47;;;3.59;100.00
9249;BME280;4660;41.768;26.198;2023-01-29T06:21:09;101391.69;;;3.63;100.00
9249;BME280;4660;41.768;26.198;2023-01-29T06:23:35;101387.50;;;3.42;100.00
9249;BME280;4660;41.768;26.198;2023-01-29T06:26:06;101403.06;;;3.49;100.00
9249;BME280;4660;41.768;26.198;2023-01-29T06:28:32;101391.66;;;3.65;100.00
9249;BME280;4660;41.768;26.198;2023-01-29T06:31:02;101397.69;;;3.84;100.00
9249;BME280;4660;41.768;26.198;2023-01-29T06:33:28;101410.66;;;4.07;100.00
9249;BME280;4660;41.768;26.198;2023-01-29T06:35:57;101402.88;;;3.70;100.00
9249;BME280;4660;41.768;26.198;2023-01-29T06:38:23;101382.97;;;3.26;100.00
9249;BME280;4660;41.768;26.198;2023-01-29T06:40:50;101392.25;;;3.35;100.00
9249;BME280;4660;41.768;26.198;2023-01-29T06:43:15;101408.78;;;3.42;100.00
9249;BME280;4660;41.768;26.198;2023-01-29T06:45:54;101422.94;;;3.42;100.00
9249;BME280;4660;41.768;26.198;2023-01-29T06:48:21;101385.56;;;3.11;100.00
9249;BME280;4660;41.768;26.198;2023-01-29T06:50:46;101427.19;;;3.29;100.00
9249;BME280;4660;41.768;26.198;2023-01-29T06:53:14;101411.59;;;3.39;100.00
9249;BME280;4660;41.768;26.198;2023-01-29T06:55:39;101422.63;;;3.66;100.00
9249;BME280;4660;41.768;26.198;2023-01-29T06:58:09;101417.72;;;3.91;100.00
9249;BME280;4660;41.768;26.198;2023-01-29T07:00:36;101431.47;;;3.99;100.00
9249;BME280;4660;41.768;26.198;2023-01-29T07:03:02;101424.88;;;3.56;100.00
9249;BME280;4660;41.768;26.198;2023-01-29T07:05:27;101430.81;;;3.78;100.00
9249;BME280;4660;41.768;26.198;2023-01-29T07:07:53;101428.22;;;3.77;100.00
9249;BME280;4660;41.768;26.198;2023-01-29T07:10:19;101425.25;;;4.00;100.00
9249;BME280;4660;41.768;26.198;2023-01-29T07:12:45;101425.16;;;4.02;100.00
9249;BME280;4660;41.768;26.198;2023-01-29T07:15:12;101423.44;;;3.83;100.00
9249;BME280;4660;41.768;26.198;2023-01-29T07:17:38;101426.56;;;3.92;100.00
9249;BME280;4660;41.768;26.198;2023-01-29T07:20:05;101438.06;;;3.92;100.00
9249;BME280;4660;41.768;26.198;2023-01-29T07:22:31;101434.50;;;3.93;100.00
9249;BME280;4660;41.768;26.198;2023-01-29T07:24:57;101429.09;;;3.77;100.00
9249;BME280;4660;41.768;26.198;2023-01-29T07:27:22;101431.03;;;3.91;100.00
9249;BME280;4660;41.768;26.198;2023-01-29T07:29:48;101438.78;;;3.78;100.00
9249;BME280;4660;41.768;26.198;2023-01-29T07:32:13;101444.19;;;3.94;100.00
9249;BME280;4660;41.768;26.198;2023-01-29T07:34:39;101445.00;;;4.12;100.00
9249;BME280;4660;41.768;26.198;2023-01-29T07:37:05;101444.44;;;4.23;100.00
9249;BME280;4660;41.768;26.198;2023-01-29T07:39:31;101437.09;;;4.10;100.00
9249;BME280;4660;41.768;26.198;2023-01-29T07:41:57;101454.28;;;4.21;100.00
9249;BME280;4660;41.768;26.198;2023-01-29T07:44:23;101457.69;;;4.07;100.00
9249;BME280;4660;41.768;26.198;2023-01-29T07:46:48;101453.28;;;4.23;100.00
9249;BME280;4660;41.768;26.198;2023-01-29T07:49:15;101448.91;;;4.22;100.00
9249;BME280;4660;41.768;26.198;2023-01-29T07:51:40;101458.53;;;4.25;100.00
9249;BME280;4660;41.768;26.198;2023-01-29T07:54:06;101458.22;;;4.13;100.00
9249;BME280;4660;41.768;26.198;2023-01-29T07:56:31;101453.75;;;4.14;100.00
9249;BME280;4660;41.768;26.198;2023-01-29T07:58:57;101459.63;;;4.21;100.00
9249;BME280;4660;41.768;26.198;2023-01-29T08:01:23;101457.16;;;4.33;100.00
9249;BME280;4660;41.768;26.198;2023-01-29T08:03:48;101462.69;;;4.30;100.00
9249;BME280;4660;41.768;26.198;2023-01-29T08:06:14;101450.88;;;4.19;100.00
9249;BME280;4660;41.768;26.198;2023-01-29T08:08:39;101465.66;;;4.24;100.00
9249;BME280;4660;41.768;26.198;2023-01-29T08:11:05;101471.09;;;4.05;100.00
9249;BME280;4660;41.768;26.198;2023-01-29T08:13:31;101454.19;;;4.06;100.00
9249;BME280;4660;41.768;26.198;2023-01-29T08:16:01;101470.47;;;4.18;100.00
9249;BME280;4660;41.768;26.198;2023-01-29T08:18:27;101471.09;;;4.05;100.00
9249;BME280;4660;41.768;26.198;2023-01-29T08:20:58;101470.00;;;4.09;100.00
9249;BME280;4660;41.768;26.198;2023-01-29T08:23:24;101463.91;;;4.07;100.00
9249;BME280;4660;41.768;26.198;2023-01-29T08:25:49;101476.97;;;4.12;100.00
9249;BME280;4660;41.768;26.198;2023-01-29T08:28:15;101473.13;;;4.18;100.00
9249;BME280;4660;41.768;26.198;2023-01-29T08:30:40;101468.41;;;4.23;100.00
9249;BME280;4660;41.768;26.198;2023-01-29T08:33:08;101471.97;;;4.39;100.00
9249;BME280;4660;41.768;26.198;2023-01-29T08:35:34;101465.81;;;4.70;100.00
9249;BME280;4660;41.768;26.198;2023-01-29T08:38:01;101466.13;;;4.64;100.00
9249;BME280;4660;41.768;26.198;2023-01-29T08:40:29;101470.38;;;4.84;100.00
9249;BME280;4660;41.768;26.198;2023-01-29T08:43:02;101467.78;;;4.82;100.00
9249;BME280;4660;41.768;26.198;2023-01-29T08:45:29;101474.66;;;5.02;100.00
9249;BME280;4660;41.768;26.198;2023-01-29T08:47:54;101473.63;;;5.05;100.00
9249;BME280;4660;41.768;26.198;2023-01-29T08:50:20;101471.53;;;5.25;100.00
9249;BME280;4660;41.768;26.198;2023-01-29T08:52:45;101474.13;;;5.11;100.00
9249;BME280;4660;41.768;26.198;2023-01-29T08:55:11;101481.66;;;4.89;100.00
9249;BME280;4660;41.768;26.198;2023-01-29T08:57:37;101475.19;;;4.77;100.00
9249;BME280;4660;41.768;26.198;2023-01-29T09:00:04;101477.94;;;5.07;100.00
9249;BME280;4660;41.768;26.198;2023-01-29T09:02:30;101469.00;;;5.08;100.00
9249;BME280;4660;41.768;26.198;2023-01-29T09:04:55;101472.94;;;5.17;100.00
9249;BME280;4660;41.768;26.198;2023-01-29T09:07:21;101474.97;;;5.28;100.00
9249;BME280;4660;41.768;26.198;2023-01-29T09:09:47;101470.53;;;5.42;100.00
9249;BME280;4660;41.768;26.198;2023-01-29T09:12:12;101470.28;;;5.47;100.00
9249;BME280;4660;41.768;26.198;2023-01-29T09:14:38;101465.91;;;5.46;100.00
9249;BME280;4660;41.768;26.198;2023-01-29T09:17:03;101457.75;;;5.33;100.00
9249;BME280;4660;41.768;26.198;2023-01-29T09:19:29;101454.53;;;5.12;100.00
9249;BME280;4660;41.768;26.198;2023-01-29T09:21:54;101458.66;;;5.18;100.00
9249;BME280;4660;41.768;26.198;2023-01-29T09:24:20;101461.16;;;5.51;100.00
9249;BME280;4660;41.768;26.198;2023-01-29T09:26:45;101463.69;;;5.68;100.00
9249;BME280;4660;41.768;26.198;2023-01-29T09:29:11;101450.81;;;5.31;100.00
9249;BME280;4660;41.768;26.198;2023-01-29T09:31:36;101455.53;;;5.25;100.00
9249;BME280;4660;41.768;26.198;2023-01-29T09:34:02;101453.91;;;5.53;100.00
9249;BME280;4660;41.768;26.198;2023-01-29T09:36:27;101449.69;;;5.49;100.00
9249;BME280;4660;41.768;26.198;2023-01-29T09:38:53;101456.44;;;5.70;100.00
9249;BME280;4660;41.768;26.198;2023-01-29T09:41:25;101450.06;;;5.43;100.00
9249;BME280;4660;41.768;26.198;2023-01-29T09:43:58;101445.50;;;5.45;100.00
9249;BME280;4660;41.768;26.198;2023-01-29T09:46:34;101452.25;;;5.66;100.00
9249;BME280;4660;41.768;26.198;2023-01-29T09:49:24;101455.41;;;5.73;100.00
9249;BME280;4660;41.768;26.198;2023-01-29T09:52:08;101441.25;;;5.27;100.00
9249;BME280;4660;41.768;26.198;2023-01-29T09:57:14;101430.22;;;5.33;100.00
9249;BME280;4660;41.768;26.198;2023-01-29T09:59:43;101428.16;;;5.38;100.00
9249;BME280;4660;41.768;26.198;2023-01-29T10:02:16;101429.72;;;5.70;100.00
9249;BME280;4660;41.768;26.198;2023-01-29T10:05:13;101433.97;;;5.89;100.00
9249;BME280;4660;41.768;26.198;2023-01-29T10:16:46;101430.34;;;5.45;100.00
9249;BME280;4660;41.768;26.198;2023-01-29T10:19:55;101419.00;;;5.42;100.00
9249;BME280;4660;41.768;26.198;2023-01-29T10:25:15;101293.84;;;4.79;100.00
9249;BME280;4660;41.768;26.198;2023-01-29T10:27:47;101418.31;;;5.38;100.00
9249;BME280;4660;41.768;26.198;2023-01-29T10:30:53;101414.44;;;5.44;100.00
9249;BME280;4660;41.768;26.198;2023-01-29T10:33:17;101403.03;;;5.70;100.00
9249;BME280;4660;41.768;26.198;2023-01-29T10:35:47;101399.81;;;5.65;100.00
9249;BME280;4660;41.768;26.198;2023-01-29T10:38:44;101392.56;;;5.67;100.00
9249;BME280;4660;41.768;26.198;2023-01-29T10:46:35;101383.91;;;5.92;100.00
9249;BME280;4660;41.768;26.198;2023-01-29T10:54:39;101383.31;;;5.59;100.00
9249;BME280;4660;41.768;26.198;2023-01-29T11:02:32;101371.63;;;6.04;100.00
9249;BME280;4660;41.768;26.198;2023-01-29T11:04:58;101366.38;;;6.02;100.00
9249;BME280;4660;41.768;26.198;2023-01-29T11:07:24;101365.50;;;5.88;100.00
9249;BME280;4660;41.768;26.198;2023-01-29T11:10:11;101361.47;;;5.66;100.00
9249;BME280;4660;41.768;26.198;2023-01-29T11:12:39;101363.94;;;5.69;100.00
9249;BME280;4660;41.768;26.198;2023-01-29T11:17:31;101359.94;;;5.76;100.00
9249;BME280;4660;41.768;26.198;2023-01-29T11:19:57;101357.88;;;5.82;100.00
9249;BME280;4660;41.768;26.198;2023-01-29T11:22:27;101350.59;;;5.69;100.00
9249;BME280;4660;41.768;26.198;2023-01-29T11:25:17;101341.75;;;5.69;100.00
9249;BME280;4660;41.768;26.198;2023-01-29T11:27:45;101341.56;;;5.72;100.00
9249;BME280;4660;41.768;26.198;2023-01-29T11:30:40;101341.84;;;5.82;100.00
9249;BME280;4660;41.768;26.198;2023-01-29T11:33:20;101332.03;;;6.11;100.00
9249;BME280;4660;41.768;26.198;2023-01-29T11:35:48;101315.91;;;5.98;100.00
9249;BME280;4660;41.768;26.198;2023-01-29T11:40:43;101316.97;;;5.95;100.00
9249;BME280;4660;41.768;26.198;2023-01-29T11:43:22;101330.19;;;6.25;100.00
9249;BME280;4660;41.768;26.198;2023-01-29T11:45:55;101321.47;;;5.95;100.00
9249;BME280;4660;41.768;26.198;2023-01-29T11:51:04;101317.34;;;5.89;100.00
9249;BME280;4660;41.768;26.198;2023-01-29T11:53:41;101297.69;;;5.76;100.00
9249;BME280;4660;41.768;26.198;2023-01-29T11:58:43;101312.28;;;5.70;100.00
9249;BME280;4660;41.768;26.198;2023-01-29T12:01:09;101314.28;;;5.81;100.00
9249;BME280;4660;41.768;26.198;2023-01-29T12:04:01;101322.50;;;5.92;100.00
9249;BME280;4660;41.768;26.198;2023-01-29T12:06:33;101306.94;;;5.85;100.00
9249;BME280;4660;41.768;26.198;2023-01-29T12:09:02;101318.41;;;5.72;100.00
9249;BME280;4660;41.768;26.198;2023-01-29T12:11:34;101296.94;;;5.88;100.00
9249;BME280;4660;41.768;26.198;2023-01-29T12:14:02;101309.06;;;5.79;100.00
9249;BME280;4660;41.768;26.198;2023-01-29T12:16:43;101318.19;;;5.61;100.00
9249;BME280;4660;41.768;26.198;2023-01-29T12:21:45;101316.38;;;6.04;100.00
9249;BME280;4660;41.768;26.198;2023-01-29T12:24:36;101305.44;;;5.95;100.00
9249;BME280;4660;41.768;26.198;2023-01-29T12:27:13;101311.50;;;5.83;100.00
9249;BME280;4660;41.768;26.198;2023-01-29T12:30:14;101306.88;;;5.72;100.00
9249;BME280;4660;41.768;26.198;2023-01-29T12:35:41;101317.53;;;5.72;100.00
9249;BME280;4660;41.768;26.198;2023-01-29T12:38:18;101317.22;;;5.76;100.00
9249;BME280;4660;41.768;26.198;2023-01-29T12:40:52;101306.38;;;5.79;100.00
9249;BME280;4660;41.768;26.198;2023-01-29T12:43:30;101296.84;;;5.75;100.00
9249;BME280;4660;41.768;26.198;2023-01-29T12:45:58;101305.06;;;5.72;100.00
9249;BME280;4660;41.768;26.198;2023-01-29T12:48:30;101315.53;;;5.61;100.00
9249;BME280;4660;41.768;26.198;2023-01-29T12:51:05;101315.72;;;5.58;100.00
9249;BME280;4660;41.768;26.198;2023-01-29T12:53:46;101318.19;;;5.47;100.00
9249;BME280;4660;41.768;26.198;2023-01-29T12:56:24;101320.72;;;5.34;100.00
9249;BME280;4660;41.768;26.198;2023-01-29T12:58:53;101318.53;;;5.27;100.00
9249;BME280;4660;41.768;26.198;2023-01-29T13:01:30;101318.72;;;5.23;100.00
9249;BME280;4660;41.768;26.198;2023-01-29T13:07:23;101319.13;;;5.46;100.00
9249;BME280;4660;41.768;26.198;2023-01-29T13:09:55;101317.13;;;5.49;100.00
9249;BME280;4660;41.768;26.198;2023-01-29T13:12:22;101320.84;;;5.47;100.00
9249;BME280;4660;41.768;26.198;2023-01-29T13:15:20;101316.38;;;5.62;100.00
9249;BME280;4660;41.768;26.198;2023-01-29T13:17:52;101312.66;;;5.64;100.00
9249;BME280;4660;41.768;26.198;2023-01-29T13:20:23;101315.31;;;5.64;100.00
9249;BME280;4660;41.768;26.198;2023-01-29T13:22:51;101280.44;;;5.39;100.00
9249;BME280;4660;41.768;26.198;2023-01-29T13:25:19;101311.16;;;5.74;100.00
9249;BME280;4660;41.768;26.198;2023-01-29T13:27:46;101314.19;;;5.54;100.00
9249;BME280;4660;41.768;26.198;2023-01-29T13:30:30;101309.91;;;5.51;100.00
9249;BME280;4660;41.768;26.198;2023-01-29T13:32:59;101312.94;;;5.60;100.00
9249;BME280;4660;41.768;26.198;2023-01-29T13:35:38;101316.75;;;5.84;100.00
9249;BME280;4660;41.768;26.198;2023-01-29T13:38:05;101312.66;;;5.93;100.00
9249;BME280;4660;41.768;26.198;2023-01-29T13:40:47;101315.16;;;5.96;100.00
9249;BME280;4660;41.768;26.198;2023-01-29T13:43:19;101315.16;;;5.82;100.00
9249;BME280;4660;41.768;26.198;2023-01-29T13:45:45;101321.81;;;5.74;100.00
9249;BME280;4660;41.768;26.198;2023-01-29T13:48:26;101319.63;;;5.81;100.00
9249;BME280;4660;41.768;26.198;2023-01-29T13:50:59;101317.81;;;5.67;100.00
9249;BME280;4660;41.768;26.198;2023-01-29T13:53:35;101324.66;;;5.71;100.00
9249;BME280;4660;41.768;26.198;2023-01-29T13:59:03;101317.53;;;5.58;100.00
9249;BME280;4660;41.768;26.198;2023-01-29T14:06:56;101329.06;;;5.72;100.00
9249;BME280;4660;41.768;26.198;2023-01-29T14:10:00;101336.41;;;5.69;100.00
9249;BME280;4660;41.768;26.198;2023-01-29T14:12:31;101329.06;;;5.72;100.00
9249;BME280;4660;41.768;26.198;2023-01-29T14:15:02;101336.69;;;5.78;100.00
9249;BME280;4660;41.768;26.198;2023-01-29T14:17:28;101334.22;;;5.75;100.00
9249;BME280;4660;41.768;26.198;2023-01-29T14:20:01;101322.94;;;5.56;100.00
9249;BME280;4660;41.768;26.198;2023-01-29T14:22:29;101317.97;;;5.36;100.00
9249;BME280;4660;41.768;26.198;2023-01-29T14:25:03;101325.72;;;5.55;100.00
9249;BME280;4660;41.768;26.198;2023-01-29T14:27:29;101336.66;;;5.50;100.00
9249;BME280;4660;41.768;26.198;2023-01-29T14:30:07;101341.47;;;5.15;100.00
9249;BME280;4660;41.768;26.198;2023-01-29T14:32:37;101335.06;;;5.03;100.00
9249;BME280;4660;41.768;26.198;2023-01-29T14:35:16;101342.84;;;5.22;100.00
9249;BME280;4660;41.768;26.198;2023-01-29T14:37:46;101333.50;;;5.29;100.00
9249;BME280;4660;41.768;26.198;2023-01-29T14:40:19;101333.00;;;5.22;100.00
9249;BME280;4660;41.768;26.198;2023-01-29T14:43:03;101346.34;;;5.22;100.00
9249;BME280;4660;41.768;26.198;2023-01-29T14:45:35;101341.16;;;5.05;100.00
9249;BME280;4660;41.768;26.198;2023-01-29T14:48:37;101333.69;;;4.96;100.00
9249;BME280;4660;41.768;26.198;2023-01-29T14:51:11;101344.41;;;5.10;100.00
9249;BME280;4660;41.768;26.198;2023-01-29T14:53:53;101343.25;;;5.00;100.00
9249;BME280;4660;41.768;26.198;2023-01-29T14:56:36;101340.66;;;4.98;100.00
9249;BME280;4660;41.768;26.198;2023-01-29T14:59:31;101349.94;;;5.07;100.00
9249;BME280;4660;41.768;26.198;2023-01-29T15:02:02;101342.19;;;5.03;100.00
9249;BME280;4660;41.768;26.198;2023-01-29T15:04:40;101349.06;;;5.07;100.00
9249;BME280;4660;41.768;26.198;2023-01-29T15:09:51;101339.88;;;5.27;100.00
9249;BME280;4660;41.768;26.198;2023-01-29T15:12:32;101352.13;;;5.45;100.00
9249;BME280;4660;41.768;26.198;2023-01-29T15:17:56;101358.09;;;5.04;100.00